createdAt,value
2022-10-02T00:01:50.540Z,101432.97
2022-10-02T00:04:29.451Z,101442.19
2022-10-02T00:07:01.053Z,101439.06
2022-10-02T00:09:39.409Z,101441.25
2022-10-02T00:12:14.047Z,101454.44
2022-10-02T00:14:46.837Z,101444.09
2022-10-02T00:17:20.867Z,101443.53
2022-10-02T00:19:53.134Z,101441.72
2022-10-02T00:22:25.732Z,101457.72
2022-10-02T00:25:21.340Z,101462.09
2022-10-02T00:27:54.104Z,101454.50
2022-10-02T00:30:20.807Z,101457.69
2022-10-02T00:32:57.770Z,101458.16
2022-10-02T00:35:46.286Z,101462.94
2022-10-02T00:38:21.885Z,101462.19
2022-10-02T00:41:30.324Z,101460.59
2022-10-02T00:44:18.263Z,101455.28
2022-10-02T00:47:12.493Z,101461.75
2022-10-02T00:49:43.299Z,101457.88
2022-10-02T00:52:24.592Z,101452.53
2022-10-02T00:55:23.082Z,101464.50
2022-10-02T00:58:14.629Z,101460.22
2022-10-02T01:00:50.256Z,101456.88
2022-10-02T01:03:37.082Z,101454.88
2022-10-02T01:06:03.768Z,101451.09
2022-10-02T01:08:30.574Z,101453.00
2022-10-02T01:10:57.178Z,101450.41
2022-10-02T01:13:26.572Z,101462.22
2022-10-02T01:15:55.928Z,101451.00
2022-10-02T01:18:25.083Z,101450.56
2022-10-02T01:20:54.783Z,101457.31
2022-10-02T01:23:28.348Z,101458.72
2022-10-02T01:25:57.557Z,101463.94
2022-10-02T01:28:24.503Z,101454.69
2022-10-02T01:30:55.968Z,101456.56
2022-10-02T01:33:25.038Z,101470.84
2022-10-02T01:35:51.636Z,101466.06
2022-10-02T01:38:22.448Z,101460.28
2022-10-02T01:40:49.441Z,101466.16
2022-10-02T01:43:24.545Z,101452.34
2022-10-02T01:46:07.587Z,101467.31
2022-10-02T01:48:40.271Z,101467.16
2022-10-02T01:51:37.102Z,101468.75
2022-10-02T01:54:45.296Z,101481.28
2022-10-02T01:57:42.639Z,101477.91
2022-10-02T02:00:17.366Z,101478.31
2022-10-02T02:03:45.003Z,101474.69
2022-10-02T02:06:23.399Z,101489.28
2022-10-02T02:09:02.184Z,101490.16
2022-10-02T02:11:29.833Z,101489.09
2022-10-02T02:14:16.451Z,101484.34
2022-10-02T02:16:48.663Z,101475.97
2022-10-02T02:19:17.994Z,101490.38
2022-10-02T02:22:16.190Z,101482.00
2022-10-02T02:25:03.562Z,101473.25
2022-10-02T02:27:39.729Z,101472.94
2022-10-02T02:30:12.002Z,101462.28
2022-10-02T02:33:02.024Z,101483.91
2022-10-02T02:35:43.720Z,101483.47
2022-10-02T02:38:24.827Z,101484.34
2022-10-02T02:40:54.321Z,101487.41
2022-10-02T02:43:31.911Z,101475.16
2022-10-02T02:46:07.796Z,101472.56
2022-10-02T02:48:43.676Z,101483.22
2022-10-02T02:51:30.035Z,101480.66
2022-10-02T02:54:31.143Z,101469.34
2022-10-02T02:57:00.587Z,101475.69
2022-10-02T02:59:31.405Z,101488.38
2022-10-02T03:01:58.807Z,101476.72
2022-10-02T03:04:25.491Z,101481.00
2022-10-02T03:06:58.617Z,101476.56
2022-10-02T03:09:26.802Z,101462.78
2022-10-02T03:12:10.606Z,101481.91
2022-10-02T03:14:52.208Z,101488.06
2022-10-02T03:17:28.923Z,101493.09
2022-10-02T03:20:22.106Z,101486.59
2022-10-02T03:23:13.461Z,101492.34
2022-10-02T03:25:51.609Z,101491.84
2022-10-02T03:28:56.475Z,101483.81
2022-10-02T03:31:27.636Z,101470.81
2022-10-02T03:33:54.874Z,101484.34
2022-10-02T03:36:24.384Z,101480.81
2022-10-02T03:39:12.957Z,101474.78
2022-10-02T03:41:43.834Z,101490.47
2022-10-02T03:44:10.333Z,101495.94
2022-10-02T03:46:37.092Z,101488.72
2022-10-02T03:49:06.160Z,101491.00
2022-10-02T03:51:32.604Z,101497.03
2022-10-02T03:53:59.191Z,101499.63
2022-10-02T03:56:31.085Z,101484.91
2022-10-02T03:59:03.485Z,101493.44
2022-10-02T04:01:35.540Z,101492.28
2022-10-02T04:04:07.882Z,101494.00
2022-10-02T04:06:48.064Z,101492.97
2022-10-02T04:09:37.352Z,101486.41
2022-10-02T04:12:17.768Z,101490.16
2022-10-02T04:14:53.294Z,101482.41
2022-10-02T04:17:26.734Z,101481.25
2022-10-02T04:20:16.322Z,101486.00
2022-10-02T04:22:52.251Z,101489.38
2022-10-02T04:25:20.566Z,101488.97
2022-10-02T04:27:57.306Z,101476.91
2022-10-02T04:30:26.471Z,101483.00
2022-10-02T04:32:56.745Z,101495.25
2022-10-02T04:35:43.732Z,101473.97
2022-10-02T04:38:34.350Z,101505.78
2022-10-02T04:41:32.815Z,101509.84
2022-10-02T04:44:27.879Z,101517.78
2022-10-02T04:47:19.411Z,101519.66
2022-10-02T04:50:13.469Z,101527.31
2022-10-02T04:53:01.934Z,101520.25
2022-10-02T04:55:56.201Z,101530.50
2022-10-02T04:58:46.528Z,101527.19
2022-10-02T05:01:55.202Z,101528.53
2022-10-02T05:04:53.444Z,101537.00
2022-10-02T05:07:38.927Z,101535.53
2022-10-02T05:10:14.663Z,101535.38
2022-10-02T05:13:16.705Z,101533.38
2022-10-02T05:15:53.527Z,101538.50
2022-10-02T05:18:41.152Z,101536.34
2022-10-02T05:21:22.763Z,101527.97
2022-10-02T05:24:13.074Z,101539.66
2022-10-02T05:27:16.223Z,101547.72
2022-10-02T05:30:01.128Z,101546.28
2022-10-02T05:32:54.911Z,101552.38
2022-10-02T05:35:34.479Z,101553.41
2022-10-02T05:38:45.717Z,101552.56
2022-10-02T05:41:32.457Z,101559.44
2022-10-02T05:44:20.907Z,101571.41
2022-10-02T05:47:06.337Z,101569.41
2022-10-02T05:49:38.015Z,101560.59
2022-10-02T05:52:19.512Z,101559.00
2022-10-02T05:55:04.695Z,101574.59
2022-10-02T05:57:36.499Z,101569.41
2022-10-02T06:00:09.032Z,101580.31
2022-10-02T06:02:45.024Z,101576.78
2022-10-02T06:05:26.852Z,101565.34
2022-10-02T06:08:02.057Z,101569.69
2022-10-02T06:10:41.453Z,101585.13
2022-10-02T06:13:18.857Z,101593.50
2022-10-02T06:15:59.593Z,101592.72
2022-10-02T06:18:31.511Z,101588.81
2022-10-02T06:21:10.205Z,101599.19
2022-10-02T06:23:46.650Z,101600.91
2022-10-02T06:26:23.724Z,101592.22
2022-10-02T06:29:26.363Z,101603.56
2022-10-02T06:32:14.148Z,101591.59
2022-10-02T06:34:42.637Z,101597.00
2022-10-02T06:37:36.185Z,101596.69
2022-10-02T06:40:21.846Z,101601.72
2022-10-02T06:43:00.980Z,101602.44
2022-10-02T06:45:53.329Z,101602.13
2022-10-02T06:48:48.933Z,101615.38
2022-10-02T06:51:30.663Z,101620.56
2022-10-02T06:54:06.387Z,101634.50
2022-10-02T06:57:11.586Z,101634.19
2022-10-02T06:59:57.437Z,101639.38
2022-10-02T07:02:41.863Z,101644.97
2022-10-02T07:05:36.510Z,101639.88
2022-10-02T07:08:05.559Z,101632.72
2022-10-02T07:10:56.659Z,101632.97
2022-10-02T07:14:09.384Z,101642.13
2022-10-02T07:17:05.215Z,101636.00
2022-10-02T07:19:53.342Z,101628.16
2022-10-02T07:22:50.302Z,101641.47
2022-10-02T07:25:45.307Z,101644.44
2022-10-02T07:28:17.805Z,101637.97
2022-10-02T07:30:56.565Z,101647.81
2022-10-02T07:34:03.740Z,101642.19
2022-10-02T07:36:42.535Z,101651.09
2022-10-02T07:39:09.349Z,101652.38
2022-10-02T07:42:13.630Z,101654.50
2022-10-02T07:45:11.272Z,101663.84
2022-10-02T07:47:43.991Z,101662.66
2022-10-02T07:50:33.569Z,101666.13
2022-10-02T07:53:39.219Z,101663.06
2022-10-02T07:56:20.143Z,101654.97
2022-10-02T07:58:57.290Z,101649.94
2022-10-02T08:01:32.241Z,101651.13
2022-10-02T08:04:07.017Z,101669.75
2022-10-02T08:06:34.517Z,101673.69
2022-10-02T08:09:01.286Z,101683.19
2022-10-02T08:11:47.358Z,101679.59
2022-10-02T08:14:38.300Z,101680.13
2022-10-02T08:17:10.600Z,101685.47
2022-10-02T08:19:42.462Z,101694.59
2022-10-02T08:22:33.779Z,101697.38
2022-10-02T08:25:06.175Z,101708.59
2022-10-02T08:27:53.063Z,101706.75
2022-10-02T08:30:19.710Z,101709.66
2022-10-02T08:32:47.941Z,101714.00
2022-10-02T08:35:21.469Z,101704.88
2022-10-02T08:38:10.203Z,101707.75
2022-10-02T08:40:58.565Z,101723.81
2022-10-02T08:43:59.838Z,101722.94
2022-10-02T08:46:59.206Z,101729.47
2022-10-02T08:49:47.235Z,101732.34
2022-10-02T08:52:42.678Z,101732.34
2022-10-02T08:55:31.263Z,101737.50
2022-10-02T08:58:19.350Z,101745.97
2022-10-02T09:00:45.917Z,101739.09
2022-10-02T09:03:33.442Z,101754.91
2022-10-02T09:05:59.931Z,101763.91
2022-10-02T09:08:35.542Z,101760.78
2022-10-02T09:11:20.895Z,101760.69
2022-10-02T09:14:10.436Z,101757.19
2022-10-02T09:17:01.528Z,101751.50
2022-10-02T09:20:13.361Z,101751.28
2022-10-02T09:22:52.086Z,101754.13
2022-10-02T09:25:25.981Z,101753.03
2022-10-02T09:28:04.226Z,101759.97
2022-10-02T09:30:42.697Z,101755.63
2022-10-02T09:33:27.695Z,101768.44
2022-10-02T09:36:01.940Z,101761.88
2022-10-02T09:39:06.085Z,101768.56
2022-10-02T09:41:38.515Z,101765.00
2022-10-02T09:44:23.704Z,101772.94
2022-10-02T09:47:19.195Z,101775.28
2022-10-02T09:50:23.581Z,101785.66
2022-10-02T09:52:53.059Z,101782.31
2022-10-02T09:55:35.364Z,101778.09
2022-10-02T09:58:23.207Z,101782.91
2022-10-02T10:01:18.711Z,101780.31
2022-10-02T10:04:14.714Z,101783.25
2022-10-02T10:06:49.675Z,101784.53
2022-10-02T10:09:36.449Z,101790.88
2022-10-02T10:12:05.303Z,101787.69
2022-10-02T10:15:14.031Z,101783.88
2022-10-02T10:18:11.085Z,101788.56
2022-10-02T10:20:51.850Z,101793.09
2022-10-02T10:23:36.351Z,101797.53
2022-10-02T10:26:34.600Z,101804.59
2022-10-02T10:29:09.095Z,101818.53
2022-10-02T10:32:03.106Z,101812.84
2022-10-02T10:35:11.002Z,101805.25
2022-10-02T10:38:14.675Z,101816.81
2022-10-02T10:41:12.139Z,101813.25
2022-10-02T10:43:57.234Z,101824.78
2022-10-02T10:46:59.398Z,101830.56
2022-10-02T10:49:38.679Z,101827.56
2022-10-02T10:52:25.449Z,101826.13
2022-10-02T10:55:07.283Z,101828.44
2022-10-02T10:58:00.946Z,101821.19
2022-10-02T11:00:30.279Z,101813.81
2022-10-02T11:03:41.969Z,101830.75
2022-10-02T11:06:41.840Z,101833.78
2022-10-02T11:09:35.029Z,101835.75
2022-10-02T11:12:30.000Z,101839.59
2022-10-02T11:15:27.482Z,101832.78
2022-10-02T11:18:03.353Z,101845.06
2022-10-02T11:20:47.963Z,101837.31
2022-10-02T11:23:41.332Z,101837.38
2022-10-02T11:26:32.609Z,101853.31
2022-10-02T11:29:11.262Z,101868.53
2022-10-02T11:32:10.121Z,101860.44
2022-10-02T11:35:13.012Z,101859.44
2022-10-02T11:37:42.540Z,101816.84
2022-10-02T11:40:21.292Z,101869.72
2022-10-02T11:42:56.948Z,101863.94
2022-10-02T11:45:29.535Z,101868.22
2022-10-02T11:48:33.308Z,101863.81
2022-10-02T11:51:21.049Z,101867.78
2022-10-02T11:54:09.092Z,101867.19
2022-10-02T11:56:56.593Z,101869.94
2022-10-02T11:59:51.259Z,101868.16
2022-10-02T12:02:41.514Z,101867.47
2022-10-02T12:05:31.575Z,101877.00
2022-10-02T12:08:17.441Z,101882.81
2022-10-02T12:11:01.911Z,101882.00
2022-10-02T12:13:54.644Z,101887.81
2022-10-02T12:16:45.573Z,101882.13
2022-10-02T12:19:39.654Z,101877.38
2022-10-02T12:22:31.071Z,101887.97
2022-10-02T12:25:30.031Z,101879.69
2022-10-02T12:28:14.676Z,101878.78
2022-10-02T12:31:02.506Z,101879.78
2022-10-02T12:33:48.683Z,101876.50
2022-10-02T12:36:33.493Z,101874.59
2022-10-02T12:39:13.379Z,101876.28
2022-10-02T12:41:54.895Z,101888.28
2022-10-02T12:44:36.960Z,101889.69
2022-10-02T12:47:09.610Z,101893.13
2022-10-02T12:49:59.397Z,101883.00
2022-10-02T12:52:44.450Z,101891.97
2022-10-02T12:55:48.176Z,101894.19
2022-10-02T12:58:26.281Z,101895.41
2022-10-02T13:01:04.988Z,101911.44
2022-10-02T13:03:52.839Z,101903.59
2022-10-02T13:06:29.789Z,101913.81
2022-10-02T13:09:21.904Z,101896.72
2022-10-02T13:11:55.876Z,101903.63
2022-10-02T13:14:46.721Z,101903.69
2022-10-02T13:17:19.094Z,101898.66
2022-10-02T13:20:00.052Z,101895.34
2022-10-02T13:22:35.581Z,101899.50
2022-10-02T13:25:17.419Z,101906.63
2022-10-02T13:28:13.713Z,101899.56
2022-10-02T13:31:00.472Z,101904.28
2022-10-02T13:33:42.326Z,101922.53
2022-10-02T13:36:17.845Z,101907.28
2022-10-02T13:39:16.488Z,101903.97
2022-10-02T13:42:02.146Z,101921.19
2022-10-02T13:45:07.207Z,101922.03
2022-10-02T13:48:03.479Z,101921.75
2022-10-02T13:50:46.498Z,101931.19
2022-10-02T13:53:34.434Z,101936.47
2022-10-02T13:56:17.463Z,101934.63
2022-10-02T13:59:11.223Z,101937.47
2022-10-02T14:01:53.301Z,101945.50
2022-10-02T14:04:38.555Z,101948.47
2022-10-02T14:07:17.070Z,101950.72
2022-10-02T14:10:02.828Z,101945.53
2022-10-02T14:12:40.896Z,101956.97
2022-10-02T14:15:23.240Z,101955.41
2022-10-02T14:18:40.359Z,101955.28
2022-10-02T14:21:33.731Z,101959.78
2022-10-02T14:24:13.947Z,101953.56
2022-10-02T14:26:59.211Z,101962.56
2022-10-02T14:29:48.920Z,101963.78
2022-10-02T14:32:26.973Z,101970.84
2022-10-02T14:34:58.519Z,101963.59
2022-10-02T14:37:55.138Z,101958.56
2022-10-02T14:40:25.236Z,101967.19
2022-10-02T14:43:06.247Z,101970.28
2022-10-02T14:45:41.818Z,101980.97
2022-10-02T14:48:10.101Z,101981.81
2022-10-02T14:51:00.497Z,101973.03
2022-10-02T14:54:00.202Z,101966.97
2022-10-02T14:57:19.192Z,101976.25
2022-10-02T15:00:01.150Z,101976.94
2022-10-02T15:02:59.161Z,101985.75
2022-10-02T15:05:37.730Z,101983.00
2022-10-02T15:08:14.946Z,101994.09
2022-10-02T15:10:43.849Z,101984.63
2022-10-02T15:13:26.784Z,101987.72
2022-10-02T15:16:27.811Z,101992.41
2022-10-02T15:19:18.417Z,101993.31
2022-10-02T15:21:56.890Z,101991.75
2022-10-02T15:24:31.624Z,102006.09
2022-10-02T15:27:23.050Z,101993.34
2022-10-02T15:30:15.855Z,102008.88
2022-10-02T15:32:42.398Z,102015.09
2022-10-02T15:35:08.851Z,102014.59
2022-10-02T15:37:47.594Z,102020.97
2022-10-02T15:40:34.093Z,102025.47
2022-10-02T15:43:27.999Z,102028.94
2022-10-02T15:46:03.512Z,102031.34
2022-10-02T15:48:55.446Z,102036.03
2022-10-02T15:52:00.975Z,102045.50
2022-10-02T15:55:04.779Z,102053.63
2022-10-02T15:57:57.422Z,102048.59
2022-10-02T16:00:26.117Z,102058.59
2022-10-02T16:03:07.659Z,102054.25
2022-10-02T16:05:55.195Z,102065.25
2022-10-02T16:08:29.549Z,102064.50
2022-10-02T16:11:15.504Z,102075.56
2022-10-02T16:13:51.295Z,102077.28
2022-10-02T16:16:36.379Z,102080.69
2022-10-02T16:19:15.464Z,102088.94
2022-10-02T16:22:17.735Z,102090.81
2022-10-02T16:25:18.650Z,102102.13
2022-10-02T16:27:52.580Z,102095.78
2022-10-02T16:30:25.135Z,102108.34
2022-10-02T16:33:00.922Z,102120.56
2022-10-02T16:36:01.720Z,102121.56
2022-10-02T16:38:47.401Z,102128.03
2022-10-02T16:41:25.888Z,102136.19
2022-10-02T16:44:11.286Z,102137.13
2022-10-02T16:46:50.728Z,102145.34
2022-10-02T16:49:43.143Z,102153.22
2022-10-02T16:52:54.078Z,102156.91
2022-10-02T16:55:33.677Z,102165.25
2022-10-02T16:58:24.410Z,102151.00
2022-10-02T17:01:22.430Z,102166.47
2022-10-02T17:04:06.963Z,102174.78
2022-10-02T17:06:49.755Z,102167.34
2022-10-02T17:09:48.295Z,102170.16
2022-10-02T17:12:42.585Z,102187.25
2022-10-02T17:15:25.501Z,102184.56
2022-10-02T17:18:25.969Z,102193.53
2022-10-02T17:21:07.829Z,102200.97
2022-10-02T17:24:05.688Z,102206.91
2022-10-02T17:26:40.768Z,102204.91
2022-10-02T17:29:27.866Z,102213.59
2022-10-02T17:32:01.536Z,102218.97
2022-10-02T17:34:34.590Z,102224.22
2022-10-02T17:37:09.970Z,102229.28
2022-10-02T17:40:03.182Z,102226.13
2022-10-02T17:42:32.823Z,102236.75
2022-10-02T17:45:08.290Z,102243.88
2022-10-02T17:47:45.635Z,102249.25
2022-10-02T17:50:31.279Z,102255.34
2022-10-02T17:53:58.736Z,102259.53
2022-10-02T17:56:52.024Z,102262.72
2022-10-02T17:59:40.713Z,102264.44
2022-10-02T18:02:10.149Z,102269.50
2022-10-02T18:04:56.926Z,102275.28
2022-10-02T18:07:46.404Z,102280.34
2022-10-02T18:10:33.514Z,102283.97
2022-10-02T18:13:21.318Z,102297.69
2022-10-02T18:16:29.649Z,102292.56
2022-10-02T18:19:14.934Z,102302.53
2022-10-02T18:22:08.126Z,102312.22
2022-10-02T18:24:51.976Z,102316.50
2022-10-02T18:27:46.571Z,102310.59
2022-10-02T18:30:21.669Z,102321.25
2022-10-02T18:33:24.220Z,102320.09
2022-10-02T18:36:01.022Z,102328.47
2022-10-02T18:38:31.525Z,102329.72
2022-10-02T18:41:20.341Z,102323.19
2022-10-02T18:44:26.182Z,102329.22
2022-10-02T18:47:14.488Z,102331.38
2022-10-02T18:50:01.734Z,102329.03
2022-10-02T18:52:47.289Z,102339.56
2022-10-02T18:55:27.540Z,102336.34
2022-10-02T18:58:21.729Z,102339.50
2022-10-02T19:01:00.546Z,102345.41
2022-10-02T19:03:58.030Z,102348.81
2022-10-02T19:06:55.707Z,102350.94
2022-10-02T19:09:30.099Z,102345.13
2022-10-02T19:12:12.709Z,102352.47
2022-10-02T19:14:45.561Z,102349.84
2022-10-02T19:17:14.184Z,102362.97
2022-10-02T19:19:42.314Z,102351.78
2022-10-02T19:22:18.827Z,102357.28
2022-10-02T19:24:49.178Z,102354.34
2022-10-02T19:27:25.552Z,102359.94
2022-10-02T19:29:58.089Z,102367.19
2022-10-02T19:32:36.702Z,102371.78
2022-10-02T19:35:19.110Z,102373.78
2022-10-02T19:37:48.782Z,102380.81
2022-10-02T19:40:23.012Z,102384.53
2022-10-02T19:43:03.980Z,102381.31
2022-10-02T19:45:34.457Z,102394.28
2022-10-02T19:48:06.846Z,102389.31
2022-10-02T19:50:47.001Z,102390.69
2022-10-02T19:53:36.382Z,102400.78
2022-10-02T19:56:09.956Z,102412.97
2022-10-02T19:58:44.171Z,102424.22
2022-10-02T20:01:44.782Z,102417.72
2022-10-02T20:04:18.346Z,102422.22
2022-10-02T20:06:49.771Z,102427.09
2022-10-02T20:09:46.317Z,102428.56
2022-10-02T20:12:15.953Z,102430.69
2022-10-02T20:14:54.445Z,102432.94
2022-10-02T20:17:21.917Z,102443.28
2022-10-02T20:19:58.828Z,102440.25
2022-10-02T20:22:37.692Z,102452.94
2022-10-02T20:25:26.520Z,102444.25
2022-10-02T20:28:14.487Z,102438.41
2022-10-02T20:31:05.607Z,102426.19
2022-10-02T20:33:50.476Z,102441.75
2022-10-02T20:36:26.630Z,102441.97
2022-10-02T20:39:00.016Z,102453.28
2022-10-02T20:41:36.120Z,102442.47
2022-10-02T20:44:06.403Z,102452.78
2022-10-02T20:47:11.957Z,102460.50
2022-10-02T20:49:57.078Z,102473.53
2022-10-02T20:53:05.921Z,102472.16
2022-10-02T20:56:03.913Z,102473.50
2022-10-02T20:58:49.287Z,102486.66
2022-10-02T21:01:45.128Z,102483.25
2022-10-02T21:04:39.689Z,102485.13
2022-10-02T21:07:24.496Z,102497.44
2022-10-02T21:10:09.894Z,102499.50
2022-10-02T21:13:14.206Z,102501.59
2022-10-02T21:15:54.769Z,102501.84
2022-10-02T21:18:58.155Z,102509.28
2022-10-02T21:22:02.498Z,102514.25
2022-10-02T21:24:56.847Z,102523.53
2022-10-02T21:27:52.026Z,102537.44
2022-10-02T21:30:22.049Z,102533.19
2022-10-02T21:33:10.864Z,102533.41
2022-10-02T21:35:44.080Z,102530.91
2022-10-02T21:38:13.130Z,102538.25
2022-10-02T21:41:19.623Z,102542.94
2022-10-02T21:44:24.952Z,102535.22
2022-10-02T21:46:57.291Z,102542.63
2022-10-02T21:49:45.178Z,102552.81
2022-10-02T21:52:32.949Z,102552.06
2022-10-02T21:55:30.037Z,102556.84
2022-10-02T21:58:21.365Z,102559.06
2022-10-02T22:01:09.142Z,102558.41
2022-10-02T22:04:10.140Z,102560.50
2022-10-02T22:06:52.489Z,102566.09
2022-10-02T22:09:45.857Z,102557.69
2022-10-02T22:13:11.290Z,102562.28
2022-10-02T22:15:38.039Z,102571.44
2022-10-02T22:18:31.325Z,102569.69
2022-10-02T22:21:11.136Z,102566.22
2022-10-02T22:23:54.780Z,102569.16
2022-10-02T22:26:42.852Z,102566.66
2022-10-02T22:29:47.214Z,102567.09
2022-10-02T22:33:09.730Z,102569.69
2022-10-02T22:35:44.539Z,102572.75
2022-10-02T22:38:15.450Z,102582.81
2022-10-02T22:40:53.908Z,102565.34
2022-10-02T22:43:43.502Z,102576.94
2022-10-02T22:46:28.287Z,102587.63
2022-10-02T22:49:17.534Z,102587.94
2022-10-02T22:51:59.345Z,102581.84
2022-10-02T22:55:03.000Z,102591.00
2022-10-02T22:57:59.066Z,102588.59
2022-10-02T23:00:31.705Z,102585.97
2022-10-02T23:03:24.757Z,102587.09
2022-10-02T23:05:59.046Z,102577.25
2022-10-02T23:08:51.218Z,102575.63
2022-10-02T23:11:25.065Z,102579.44
2022-10-02T23:14:01.605Z,102574.94
2022-10-02T23:16:42.818Z,102577.31
2022-10-02T23:19:21.110Z,102582.03
2022-10-02T23:21:53.450Z,102599.25
2022-10-02T23:24:41.593Z,102591.19
2022-10-02T23:27:21.440Z,102585.19
2022-10-02T23:30:05.122Z,102597.00
2022-10-02T23:32:46.948Z,102606.25
2022-10-02T23:35:13.406Z,102608.00
2022-10-02T23:38:00.826Z,102603.63
2022-10-02T23:41:13.981Z,102601.06
2022-10-02T23:43:59.621Z,102597.22
2022-10-02T23:46:32.944Z,102589.81
2022-10-02T23:48:59.528Z,102606.84
2022-10-02T23:51:53.618Z,102603.56
2022-10-02T23:54:46.388Z,102596.56
2022-10-02T23:57:18.986Z,102604.75
